createdAt,value
2022-08-05T00:03:15.856Z,7.10
2022-08-05T00:08:00.919Z,9.02
2022-08-05T00:12:35.546Z,8.57
2022-08-05T00:17:31.098Z,8.55
2022-08-05T00:22:05.862Z,8.90
2022-08-05T00:26:43.416Z,8.77
2022-08-05T00:31:54.474Z,7.30
2022-08-05T00:37:12.443Z,7.30
2022-08-05T00:41:27.813Z,9.38
2022-08-05T00:46:42.815Z,8.07
2022-08-05T00:51:50.683Z,13.13
2022-08-05T00:56:12.323Z,9.30
2022-08-05T01:00:51.323Z,9.02
2022-08-05T01:05:27.470Z,7.88
2022-08-05T01:10:02.823Z,8.87
2022-08-05T01:14:49.717Z,8.27
2022-08-05T01:19:56.576Z,11.65
2022-08-05T01:24:48.597Z,10.03
2022-08-05T01:29:30.716Z,7.72
2022-08-05T01:34:10.478Z,8.15
2022-08-05T01:38:48.541Z,8.57
2022-08-05T01:43:25.373Z,7.75
2022-08-05T01:48:03.195Z,10.05
2022-08-05T01:52:49.979Z,8.70
2022-08-05T01:58:12.869Z,11.63
2022-08-05T02:02:28.107Z,8.80
2022-08-05T02:07:04.392Z,10.68
2022-08-05T02:11:48.148Z,10.47
2022-08-05T02:16:29.960Z,12.35
2022-08-05T02:21:14.802Z,8.23
2022-08-05T02:25:51.995Z,9.37
2022-08-05T02:30:29.027Z,9.48
2022-08-05T02:35:13.588Z,10.07
2022-08-05T02:39:51.725Z,8.55
2022-08-05T02:44:29.642Z,11.80
2022-08-05T02:49:05.905Z,8.85
2022-08-05T02:53:46.665Z,9.25
2022-08-05T02:58:24.658Z,10.80
2022-08-05T03:03:03.292Z,8.75
2022-08-05T03:08:04.620Z,8.93
2022-08-05T03:12:40.571Z,9.83
2022-08-05T03:17:15.199Z,8.98
2022-08-05T03:21:50.610Z,11.90
2022-08-05T03:26:30.823Z,9.60
2022-08-05T03:31:07.407Z,12.27
2022-08-05T03:35:41.950Z,10.40
2022-08-05T03:40:31.221Z,8.55
2022-08-05T03:45:21.901Z,9.73
2022-08-05T03:49:56.428Z,8.13
2022-08-05T03:55:00.536Z,9.05
2022-08-05T03:59:47.611Z,8.77
2022-08-05T04:04:30.119Z,12.60
2022-08-05T04:09:06.341Z,9.80
2022-08-05T04:13:49.915Z,10.88
2022-08-05T04:18:27.389Z,9.37
2022-08-05T04:23:01.441Z,10.73
2022-08-05T04:27:43.470Z,9.13
2022-08-05T04:32:30.972Z,11.77
2022-08-05T04:37:08.749Z,9.15
2022-08-05T04:41:42.732Z,10.43
2022-08-05T04:46:27.767Z,9.97
2022-08-05T04:51:11.255Z,10.43
2022-08-05T04:56:33.446Z,7.95
2022-08-05T05:00:42.038Z,8.18
2022-08-05T05:05:25.889Z,11.17
2022-08-05T05:10:05.424Z,12.85
2022-08-05T05:14:49.097Z,13.27
2022-08-05T05:19:27.383Z,12.27
2022-08-05T05:24:10.813Z,8.35
2022-08-05T05:28:45.346Z,8.43
2022-08-05T05:33:23.113Z,13.47
2022-08-05T05:38:01.457Z,9.05
2022-08-05T05:42:36.195Z,10.40
2022-08-05T05:47:21.865Z,8.75
2022-08-05T05:51:57.709Z,9.03
2022-08-05T05:56:34.857Z,8.88
2022-08-05T06:01:12.575Z,10.05
2022-08-05T06:05:47.117Z,8.27
2022-08-05T06:10:36.781Z,8.45
2022-08-05T06:15:16.466Z,12.82
2022-08-05T06:19:59.551Z,8.53
2022-08-05T06:24:34.090Z,11.23
2022-08-05T06:29:42.895Z,8.25
2022-08-05T06:34:07.634Z,12.10
2022-08-05T06:38:47.108Z,10.97
2022-08-05T06:43:58.488Z,10.52
2022-08-05T06:48:53.027Z,10.55
2022-08-05T06:53:11.437Z,10.73
2022-08-05T06:58:02.677Z,9.50
2022-08-05T07:02:43.545Z,9.93
2022-08-05T07:07:24.144Z,10.10
2022-08-05T07:12:30.398Z,9.23
2022-08-05T07:18:01.765Z,10.98
2022-08-05T07:22:00.527Z,9.65
2022-08-05T07:26:36.868Z,8.97
2022-08-05T07:31:10.889Z,10.27
2022-08-05T07:36:03.319Z,12.27
2022-08-05T07:40:44.539Z,8.70
2022-08-05T07:45:44.078Z,10.27
2022-08-05T07:50:16.541Z,10.90
2022-08-05T07:54:50.839Z,13.10
2022-08-05T07:59:38.202Z,8.25
2022-08-05T08:04:16.732Z,11.07
2022-08-05T08:08:57.023Z,12.38
2022-08-05T08:13:31.714Z,8.07
2022-08-05T08:18:20.894Z,12.27
2022-08-05T08:22:59.096Z,10.13
2022-08-05T08:27:40.298Z,8.40
2022-08-05T08:32:21.465Z,9.02
2022-08-05T08:37:03.409Z,9.13
2022-08-05T08:41:51.763Z,9.87
2022-08-05T08:46:33.823Z,10.27
2022-08-05T08:51:54.581Z,7.18
2022-08-05T08:56:06.094Z,8.73
2022-08-05T09:00:43.484Z,6.70
2022-08-05T09:05:18.739Z,9.85
2022-08-05T09:10:12.770Z,8.90
2022-08-05T09:14:56.315Z,8.27
2022-08-05T09:19:36.586Z,8.07
2022-08-05T09:24:27.700Z,6.80
2022-08-05T09:29:09.765Z,9.33
2022-08-05T09:33:51.327Z,7.55
2022-08-05T09:38:29.742Z,7.70
2022-08-05T09:43:08.412Z,8.55
2022-08-05T09:47:54.990Z,7.13
2022-08-05T09:52:31.360Z,7.40
2022-08-05T09:57:20.697Z,7.38
2022-08-05T10:01:58.471Z,6.83
2022-08-05T10:06:34.114Z,15.05
2022-08-05T10:11:16.943Z,8.32
2022-08-05T10:15:52.864Z,7.17
2022-08-05T10:20:27.728Z,7.63
2022-08-05T10:25:03.754Z,8.07
2022-08-05T10:30:06.967Z,7.50
2022-08-05T10:34:33.923Z,7.43
2022-08-05T10:39:24.454Z,8.25
2022-08-05T10:44:11.604Z,7.65
2022-08-05T10:48:56.868Z,8.27
2022-08-05T10:53:45.314Z,6.90
2022-08-05T10:58:20.634Z,8.18
2022-08-05T11:03:24.341Z,10.43
2022-08-05T11:08:12.763Z,7.53
2022-08-05T11:13:01.062Z,8.63
2022-08-05T11:17:56.740Z,6.03
2022-08-05T11:22:49.906Z,10.23
2022-08-05T11:27:37.041Z,7.63
2022-08-05T11:32:27.599Z,8.10
2022-08-05T11:37:01.874Z,6.70
2022-08-05T11:42:00.957Z,7.30
2022-08-05T11:46:37.803Z,8.90
2022-08-05T11:51:43.776Z,8.03
2022-08-05T11:56:23.235Z,7.88
2022-08-05T12:01:19.064Z,7.68
2022-08-05T12:05:54.085Z,6.55
2022-08-05T12:10:43.533Z,7.40
2022-08-05T12:15:37.809Z,7.60
2022-08-05T12:20:25.917Z,7.88
2022-08-05T12:25:02.700Z,8.57
2022-08-05T12:29:39.269Z,7.28
2022-08-05T12:34:20.569Z,7.25
2022-08-05T12:38:56.039Z,7.73
2022-08-05T12:43:31.961Z,7.85
2022-08-05T12:48:32.740Z,8.48
2022-08-05T12:53:07.249Z,7.38
2022-08-05T12:58:48.421Z,6.77
2022-08-05T13:02:40.031Z,10.35
2022-08-05T13:07:47.776Z,9.48
2022-08-05T13:12:18.717Z,12.73
2022-08-05T13:16:58.124Z,9.27
2022-08-05T13:21:38.046Z,7.50
2022-08-05T13:26:29.841Z,8.87
2022-08-05T13:31:11.145Z,8.40
2022-08-05T13:35:51.847Z,10.10
2022-08-05T13:40:49.900Z,10.35
2022-08-05T13:45:21.622Z,7.70
2022-08-05T13:49:55.862Z,9.50
2022-08-05T13:54:29.836Z,8.75
2022-08-05T13:59:06.226Z,8.43
2022-08-05T14:04:12.721Z,10.45
2022-08-05T14:08:46.664Z,9.00
2022-08-05T14:13:20.757Z,8.03
2022-08-05T14:17:59.587Z,5.80
2022-08-05T14:22:36.573Z,7.32
2022-08-05T14:27:18.075Z,7.25
2022-08-05T14:31:54.281Z,6.23
2022-08-05T14:36:38.046Z,6.10
2022-08-05T14:41:14.947Z,5.22
2022-08-05T14:45:51.923Z,5.63
2022-08-05T14:50:27.600Z,5.93
2022-08-05T14:55:04.926Z,6.78
2022-08-05T14:59:40.947Z,7.37
2022-08-05T15:04:15.813Z,5.63
2022-08-05T15:09:01.108Z,5.57
2022-08-05T15:13:45.862Z,6.78
2022-08-05T15:18:22.054Z,8.07
2022-08-05T15:22:56.292Z,8.18
2022-08-05T15:27:35.885Z,8.15
2022-08-05T15:32:10.092Z,9.13
2022-08-05T15:36:45.549Z,15.77
2022-08-05T15:41:24.143Z,23.67
2022-08-05T15:46:00.459Z,16.27
2022-08-05T15:50:35.409Z,16.52
2022-08-05T15:55:15.507Z,16.10
2022-08-05T15:59:52.865Z,17.52
2022-08-05T16:04:31.606Z,18.20
2022-08-05T16:09:05.799Z,16.10
2022-08-05T16:13:45.587Z,15.27
2022-08-05T16:18:19.700Z,14.87
2022-08-05T16:23:03.613Z,16.02
2022-08-05T16:28:00.362Z,15.55
2022-08-05T16:32:33.733Z,11.50
2022-08-05T16:38:03.655Z,12.25
2022-08-05T16:42:15.413Z,11.05
2022-08-05T16:46:55.493Z,13.40
2022-08-05T16:51:42.341Z,13.03
2022-08-05T16:56:24.297Z,10.80
2022-08-05T17:00:58.395Z,10.52
2022-08-05T17:05:33.724Z,11.87
2022-08-05T17:10:13.279Z,11.85
2022-08-05T17:14:47.259Z,9.55
2022-08-05T17:19:21.794Z,8.83
2022-08-05T17:24:04.548Z,10.57
2022-08-05T17:28:43.755Z,8.13
2022-08-05T17:33:21.656Z,8.65
2022-08-05T17:38:00.601Z,7.33
2022-08-05T17:42:41.598Z,7.97
2022-08-05T17:47:25.974Z,7.47
2022-08-05T17:52:00.406Z,7.17
2022-08-05T17:56:34.673Z,7.65
2022-08-05T18:01:10.675Z,7.25
2022-08-05T18:05:50.043Z,7.80
2022-08-05T18:10:27.836Z,8.68
2022-08-05T18:15:08.771Z,5.93
2022-08-05T18:19:44.682Z,7.18
2022-08-05T18:24:26.925Z,5.63
2022-08-05T18:29:02.204Z,7.88
2022-08-05T18:33:37.728Z,6.53
2022-08-05T18:38:26.440Z,8.13
2022-08-05T18:43:02.419Z,5.45
2022-08-05T18:47:38.789Z,6.57
2022-08-05T18:52:32.864Z,5.97
2022-08-05T18:57:09.580Z,5.60
2022-08-05T19:01:57.967Z,5.88
2022-08-05T19:06:34.396Z,6.90
2022-08-05T19:11:11.412Z,6.27
2022-08-05T19:15:57.626Z,5.78
2022-08-05T19:20:36.708Z,7.00
2022-08-05T19:25:21.710Z,6.63
2022-08-05T19:30:07.055Z,6.00
2022-08-05T19:34:42.015Z,8.00
2022-08-05T19:39:31.994Z,6.13
2022-08-05T19:44:19.895Z,6.25
2022-08-05T19:48:53.836Z,6.80
2022-08-05T19:54:04.088Z,5.40
2022-08-05T19:58:29.187Z,5.20
2022-08-05T20:03:05.388Z,6.68
2022-08-05T20:07:46.887Z,7.75
2022-08-05T20:12:24.939Z,6.13
2022-08-05T20:17:03.508Z,6.03
2022-08-05T20:21:40.691Z,6.35
2022-08-05T20:26:17.943Z,5.53
2022-08-05T20:30:52.057Z,7.30
2022-08-05T20:35:27.739Z,6.80
2022-08-05T20:40:06.802Z,8.20
2022-08-05T20:44:40.809Z,6.03
2022-08-05T20:49:15.119Z,7.05
2022-08-05T20:54:01.253Z,6.88
2022-08-05T20:58:35.526Z,6.10
2022-08-05T21:03:09.944Z,7.85
2022-08-05T21:07:50.998Z,6.38
2022-08-05T21:12:27.697Z,9.80
2022-08-05T21:17:02.228Z,8.25
2022-08-05T21:21:44.297Z,7.50
2022-08-05T21:26:26.380Z,7.00
2022-08-05T21:31:04.888Z,6.77
2022-08-05T21:35:55.838Z,8.77
2022-08-05T21:40:33.069Z,6.32
2022-08-05T21:45:10.648Z,6.70
2022-08-05T21:50:00.227Z,8.40
2022-08-05T21:54:35.444Z,7.10
2022-08-05T21:59:24.402Z,6.63
2022-08-05T22:03:59.292Z,9.02
2022-08-05T22:08:35.668Z,8.63
2022-08-05T22:14:05.961Z,6.47
2022-08-05T22:18:03.700Z,6.60
2022-08-05T22:22:52.082Z,7.70
2022-08-05T22:28:04.840Z,7.45
2022-08-05T22:32:37.940Z,7.10
2022-08-05T22:37:15.441Z,9.50
2022-08-05T22:42:58.229Z,8.00
2022-08-05T22:47:55.307Z,6.90
2022-08-05T22:52:51.386Z,6.35
2022-08-05T22:57:45.241Z,6.82
2022-08-05T23:02:39.953Z,8.20
2022-08-05T23:07:45.163Z,6.77
2022-08-05T23:12:43.923Z,6.72
2022-08-05T23:18:00.670Z,8.35
2022-08-05T23:22:55.805Z,8.93
2022-08-05T23:28:00.347Z,7.78
2022-08-05T23:32:47.198Z,9.30
2022-08-05T23:37:43.571Z,8.97
2022-08-05T23:42:38.192Z,8.65
2022-08-05T23:47:33.702Z,9.27
2022-08-05T23:52:49.430Z,8.82
2022-08-05T23:57:48.939Z,9.53
